Time;durP1;ratioP1;P1;durP2;ratioP2;P2;SDS_P1;SDS_P2;PMS_P1;PMS_P2;Temp;Humidity;BMP_temperature;BMP_pressure;BME280_temperature;BME280_humidity;BME280_pressure;Samples;Min_cycle;Max_cycle;Signal;HPM_P1;HPM_P2
2023/12/13 00:01:23;;;;;;;10.90;10.27;;;;;;;5.29;98.75;92568.09;5110603;28;20188;-71
2023/12/13 00:03:50;;;;;;;11.13;10.33;;;;;;;5.22;98.88;92580.44;5110004;28;20334;-69
2023/12/13 00:06:15;;;;;;;9.90;9.40;;;;;;;5.34;98.54;92574.06;5110614;28;20184;-69
2023/12/13 00:08:41;;;;;;;11.80;11.10;;;;;;;5.39;98.60;92573.31;5109667;28;20224;-69
2023/12/13 00:11:06;;;;;;;11.30;10.47;;;;;;;5.34;100.00;92565.53;5110485;28;20184;-69
2023/12/13 00:13:31;;;;;;;11.17;10.53;;;;;;;5.43;99.93;92566.63;5109694;28;20219;-69
2023/12/13 00:15:57;;;;;;;10.93;10.13;;;;;;;5.34;99.31;92566.31;5112066;28;20207;-70
2023/12/13 00:18:22;;;;;;;11.13;10.47;;;;;;;5.33;99.48;92576.91;5109943;28;20238;-69
2023/12/13 00:20:47;;;;;;;10.53;9.73;;;;;;;5.37;99.28;92570.97;5110588;28;20198;-69
2023/12/13 00:23:12;;;;;;;11.17;10.43;;;;;;;5.53;98.37;92570.06;5109541;28;21051;-70
2023/12/13 00:25:38;;;;;;;12.70;11.83;;;;;;;5.34;98.93;92571.47;5109976;28;20199;-69
2023/12/13 00:28:04;;;;;;;12.30;11.57;;;;;;;5.26;99.45;92553.81;5109623;28;20227;-69
2023/12/13 00:30:29;;;;;;;13.67;12.70;;;;;;;5.27;99.31;92552.00;5110002;28;20191;-69
2023/12/13 00:32:54;;;;;;;12.30;11.37;;;;;;;5.26;99.33;92571.94;5109249;28;20220;-69
2023/12/13 00:35:20;;;;;;;12.93;11.73;;;;;;;5.38;99.07;92571.78;5110222;28;20176;-69
2023/12/13 00:37:45;;;;;;;13.93;12.60;;;;;;;5.23;99.02;92550.97;5109428;28;20235;-70
2023/12/13 00:40:11;;;;;;;12.10;11.37;;;;;;;5.44;98.62;92555.25;5110184;28;20214;-70
2023/12/13 00:42:37;;;;;;;11.77;11.03;;;;;;;5.29;98.97;92537.03;5109038;28;20211;-70
2023/12/13 00:45:04;;;;;;;12.57;11.53;;;;;;;5.46;98.76;92551.41;5110035;28;20196;-70
2023/12/13 00:47:30;;;;;;;12.33;11.63;;;;;;;5.31;99.16;92547.91;5099234;28;20184;-72
2023/12/13 00:49:55;;;;;;;12.63;11.43;;;;;;;5.37;99.25;92559.88;5110049;28;20218;-69
2023/12/13 00:52:21;;;;;;;11.63;10.80;;;;;;;5.37;98.84;92549.50;5109152;28;20201;-70
2023/12/13 00:54:46;;;;;;;10.23;9.73;;;;;;;5.27;99.40;92557.19;5106311;28;20260;-70
2023/12/13 00:57:12;;;;;;;10.37;9.60;;;;;;;5.34;99.00;92545.59;5109844;28;20188;-70
2023/12/13 00:59:38;;;;;;;10.63;10.03;;;;;;;5.34;99.18;92524.13;5109254;28;20239;-70
2023/12/13 01:02:05;;;;;;;10.77;9.97;;;;;;;5.52;98.95;92529.69;5109721;28;20204;-69
2023/12/13 01:04:33;;;;;;;11.10;10.60;;;;;;;5.28;99.78;92523.28;5108709;28;20219;-70
2023/12/13 01:06:59;;;;;;;11.23;10.53;;;;;;;5.34;99.57;92514.53;5108450;28;20185;-69
2023/12/13 01:09:24;;;;;;;11.00;10.40;;;;;;;5.36;99.19;92507.31;5108527;28;20234;-71
2023/12/13 01:11:49;;;;;;;11.67;10.97;;;;;;;5.52;99.20;92515.94;5109999;28;20204;-69
2023/12/13 01:14:15;;;;;;;11.33;10.63;;;;;;;5.50;98.63;92505.06;5110802;28;20216;-68
2023/12/13 01:16:40;;;;;;;11.70;11.00;;;;;;;5.69;98.45;92495.84;5109444;28;20188;-69
2023/12/13 01:19:05;;;;;;;10.80;10.10;;;;;;;5.59;98.42;92482.84;5109679;28;20231;-70
2023/12/13 01:21:31;;;;;;;11.90;11.17;;;;;;;5.56;99.07;92488.53;5109544;28;20196;-69
2023/12/13 01:23:58;;;;;;;9.93;9.40;;;;;;;5.40;99.16;92477.31;5108894;28;20220;-70
2023/12/13 01:26:24;;;;;;;12.43;11.43;;;;;;;5.46;99.32;92480.72;5109352;28;20713;-70
2023/12/13 01:28:49;;;;;;;11.87;11.13;;;;;;;5.51;98.91;92480.75;5108595;28;20226;-69
2023/12/13 01:31:14;;;;;;;11.87;11.07;;;;;;;5.50;99.39;92476.59;5108972;28;20473;-69
2023/12/13 01:33:40;;;;;;;13.03;12.00;;;;;;;5.49;98.88;92475.03;5091195;28;20246;-69
2023/12/13 01:36:05;;;;;;;12.40;11.60;;;;;;;5.39;99.56;92485.31;5109623;28;20188;-69
2023/12/13 01:38:30;;;;;;;12.03;11.23;;;;;;;5.39;99.09;92485.31;5112152;28;20243;-70
2023/12/13 01:40:56;;;;;;;11.67;10.97;;;;;;;5.36;99.93;92485.81;5113055;28;20210;-70
2023/12/13 01:43:23;;;;;;;11.90;11.10;;;;;;;5.47;99.64;92498.59;5112567;28;20250;-69
2023/12/13 01:45:51;;;;;;;11.53;10.77;;;;;;;5.58;99.61;92509.78;5113102;28;20184;-69
2023/12/13 01:48:16;;;;;;;10.20;9.50;;;;;;;5.55;99.71;92499.91;5112848;28;20228;-70
2023/12/13 01:50:42;;;;;;;11.03;10.43;;;;;;;5.65;99.23;92489.63;5113145;28;20210;-70
2023/12/13 01:53:08;;;;;;;10.47;9.97;;;;;;;5.73;98.67;92476.19;5112677;28;20228;-69
2023/12/13 01:55:33;;;;;;;11.90;11.00;;;;;;;5.82;98.46;92466.94;5107070;28;20256;-69
2023/12/13 01:57:59;;;;;;;11.80;11.13;;;;;;;5.70;99.19;92466.31;5112298;28;20232;-69
2023/12/13 02:00:25;;;;;;;10.57;10.00;;;;;;;5.77;99.34;92457.31;5112932;28;20184;-70
2023/12/13 02:02:51;;;;;;;11.27;10.57;;;;;;;5.82;99.02;92461.78;5094461;28;20223;-70
2023/12/13 02:05:17;;;;;;;11.00;10.40;;;;;;;5.76;99.58;92454.97;5112651;28;20199;-69
2023/12/13 02:07:42;;;;;;;11.53;10.73;;;;;;;5.91;99.15;92452.47;5112293;28;20223;-70
2023/12/13 02:10:08;;;;;;;10.37;9.80;;;;;;;5.89;99.23;92451.94;5112878;28;20196;-70
2023/12/13 02:12:34;;;;;;;11.47;10.87;;;;;;;5.87;100.00;92456.59;5112307;28;20188;-69
2023/12/13 02:15:00;;;;;;;11.47;10.77;;;;;;;6.01;99.35;92440.31;5113972;28;20184;-69
2023/12/13 02:17:25;;;;;;;11.73;10.83;;;;;;;5.94;99.46;92444.19;5112012;28;20203;-69
2023/12/13 02:19:51;;;;;;;12.80;12.00;;;;;;;6.07;98.94;92436.72;5113074;28;20202;-70
2023/12/13 02:22:16;;;;;;;12.00;11.20;;;;;;;6.14;99.05;92426.09;5112635;28;20238;-70
2023/12/13 02:24:43;;;;;;;12.40;11.60;;;;;;;6.06;99.82;92408.47;5112267;28;20299;-69
2023/12/13 02:27:09;;;;;;;11.90;11.20;;;;;;;6.27;99.31;92415.25;5112059;28;20195;-69
2023/12/13 02:29:34;;;;;;;11.67;10.77;;;;;;;6.35;99.10;92425.13;5111704;28;20216;-69
2023/12/13 02:31:59;;;;;;;12.87;11.87;;;;;;;6.44;98.89;92416.56;5112263;28;20199;-70
2023/12/13 02:34:25;;;;;;;11.83;11.13;;;;;;;6.48;98.83;92416.84;5111805;28;20279;-69
2023/12/13 02:36:50;;;;;;;11.57;10.77;;;;;;;6.47;98.47;92415.28;5112375;28;20176;-69
2023/12/13 02:39:15;;;;;;;12.47;11.57;;;;;;;6.42;98.88;92420.47;5111687;28;20243;-70
2023/12/13 02:41:41;;;;;;;12.40;11.60;;;;;;;6.32;98.83;92413.44;5111975;28;20238;-70
2023/12/13 02:44:06;;;;;;;11.03;10.13;;;;;;;6.35;98.72;92384.41;5111757;28;20228;-70
2023/12/13 02:46:31;;;;;;;10.27;9.77;;;;;;;6.28;98.75;92380.53;5111923;28;20218;-69
2023/12/13 02:48:58;;;;;;;12.37;11.57;;;;;;;6.29;98.74;92387.25;5110882;28;20236;-70
2023/12/13 02:51:23;;;;;;;11.17;10.47;;;;;;;6.27;98.83;92397.88;5119479;28;20728;-70
2023/12/13 02:53:49;;;;;;;10.57;9.97;;;;;;;6.22;98.95;92397.09;5114516;28;20267;-70
2023/12/13 02:56:14;;;;;;;11.37;10.67;;;;;;;6.13;98.91;92412.38;5111537;28;20184;-70
2023/12/13 02:58:40;;;;;;;11.20;10.40;;;;;;;6.15;99.27;92406.94;5114922;28;20234;-69
2023/12/13 03:01:06;;;;;;;10.93;10.33;;;;;;;6.16;98.95;92392.94;5111779;28;20212;-70
2023/12/13 03:03:31;;;;;;;11.30;10.60;;;;;;;6.31;98.94;92398.16;5111310;28;20234;-69
2023/12/13 03:05:57;;;;;;;11.80;10.77;;;;;;;6.32;98.74;92402.28;5113330;28;20190;-69
2023/12/13 03:08:22;;;;;;;11.07;10.27;;;;;;;6.10;99.84;92399.16;5111182;28;20220;-69
2023/12/13 03:10:47;;;;;;;11.97;11.07;;;;;;;6.12;100.00;92402.25;5111410;28;20184;-69
2023/12/13 03:13:13;;;;;;;12.97;11.63;;;;;;;5.98;100.00;92386.44;5111555;28;20235;-69
2023/12/13 03:15:38;;;;;;;10.67;10.10;;;;;;;6.17;100.00;92392.69;5111334;28;20187;-69
2023/12/13 03:18:03;;;;;;;12.30;11.50;;;;;;;6.42;99.75;92397.13;5111126;28;20227;-72
2023/12/13 03:20:30;;;;;;;11.90;11.10;;;;;;;6.17;99.52;92384.13;5111395;28;20184;-68
2023/12/13 03:22:56;;;;;;;11.90;11.10;;;;;;;6.21;99.82;92400.75;5110691;28;20279;-70
2023/12/13 03:25:22;;;;;;;11.73;10.87;;;;;;;6.24;99.41;92411.34;5110470;28;20214;-69
2023/12/13 03:27:47;;;;;;;10.73;10.07;;;;;;;6.25;98.52;92406.97;5110569;28;20250;-70
2023/12/13 03:30:12;;;;;;;12.00;11.27;;;;;;;5.99;98.88;92405.34;5111084;28;20187;-69
2023/12/13 03:32:41;;;;;;;12.83;11.90;;;;;;;5.40;100.00;92428.13;5110725;28;20236;-69
2023/12/13 03:35:07;;;;;;;14.40;13.30;;;;;;;5.41;100.00;92423.72;5111436;28;20223;-69
2023/12/13 03:37:33;;;;;;;13.60;12.30;;;;;;;5.73;100.00;92417.41;5103196;28;20320;-70
2023/12/13 03:39:59;;;;;;;13.90;12.90;;;;;;;5.83;100.00;92421.88;5111405;28;20180;-69
2023/12/13 03:42:24;;;;;;;12.90;12.00;;;;;;;5.83;100.00;92424.47;5110429;28;20291;-69
2023/12/13 03:44:49;;;;;;;12.80;11.70;;;;;;;5.83;100.00;92424.47;5110979;28;20195;-69
2023/12/13 03:47:15;;;;;;;11.70;10.70;;;;;;;5.85;99.97;92423.16;5110911;28;20242;-70
2023/12/13 03:49:40;;;;;;;11.90;10.97;;;;;;;5.78;100.00;92411.47;5110637;28;20215;-69
2023/12/13 03:52:07;;;;;;;12.00;11.27;;;;;;;5.59;100.00;92423.28;5110601;28;20184;-69
2023/12/13 03:54:33;;;;;;;12.60;11.73;;;;;;;5.70;100.00;92410.13;5108788;28;20204;-69
2023/12/13 03:56:58;;;;;;;13.40;12.30;;;;;;;5.96;99.18;92413.63;5110558;28;20203;-73
2023/12/13 03:59:23;;;;;;;14.83;13.57;;;;;;;5.93;99.50;92398.59;5114398;28;20247;-73
2023/12/13 04:01:49;;;;;;;14.47;12.97;;;;;;;5.80;99.36;92386.88;5110402;28;20762;-72
2023/12/13 04:04:14;;;;;;;13.70;12.70;;;;;;;6.02;97.82;92391.88;5110043;28;20231;-73
2023/12/13 04:06:39;;;;;;;16.73;15.23;;;;;;;5.40;100.00;92412.59;5110161;28;20196;-73
2023/12/13 04:09:05;;;;;;;17.73;15.93;;;;;;;5.27;100.00;92388.97;5098357;28;20208;-73
2023/12/13 04:11:30;;;;;;;19.33;16.43;;;;;;;5.12;100.00;92399.25;5110570;28;20196;-73
2023/12/13 04:13:55;;;;;;;18.60;16.10;;;;;;;5.51;100.00;92406.44;5109722;28;20216;-73
2023/12/13 04:16:21;;;;;;;26.13;18.10;;;;;;;5.05;100.00;92385.75;5110418;28;20180;-73
2023/12/13 04:18:46;;;;;;;20.53;17.70;;;;;;;5.35;100.00;92381.53;5104614;28;20216;-73
2023/12/13 04:21:12;;;;;;;22.90;17.37;;;;;;;5.09;100.00;92379.06;5110835;28;20176;-73
2023/12/13 04:23:37;;;;;;;20.23;16.73;;;;;;;5.20;100.00;92352.22;5109514;28;20219;-73
2023/12/13 04:26:03;;;;;;;18.87;16.30;;;;;;;5.61;100.00;92370.25;5110167;28;20188;-73
2023/12/13 04:28:29;;;;;;;18.07;16.27;;;;;;;5.79;100.00;92379.38;5105341;28;20291;-73
2023/12/13 04:30:54;;;;;;;17.83;16.13;;;;;;;5.82;100.00;92379.66;5092499;28;20213;-73
2023/12/13 04:33:19;;;;;;;22.50;18.83;;;;;;;5.67;100.00;92322.59;5109412;28;20220;-72
2023/12/13 04:35:46;;;;;;;17.03;15.17;;;;;;;5.05;100.00;92367.63;5110200;28;20188;-73
2023/12/13 04:38:11;;;;;;;17.33;15.70;;;;;;;5.48;100.00;92349.22;5108165;28;20918;-73
2023/12/13 04:40:36;;;;;;;19.93;17.90;;;;;;;5.61;100.00;92359.09;5109437;28;20203;-73
2023/12/13 04:43:02;;;;;;;18.70;16.37;;;;;;;5.35;100.00;92354.84;5107886;28;20220;-74
2023/12/13 04:45:27;;;;;;;17.67;16.07;;;;;;;5.78;100.00;92331.16;5109871;28;20203;-76
2023/12/13 04:47:53;;;;;;;16.70;15.17;;;;;;;5.42;100.00;92345.03;5109214;28;20239;-76
2023/12/13 04:50:18;;;;;;;17.10;15.40;;;;;;;5.95;100.00;92375.78;5110428;28;20262;-71
2023/12/13 04:52:43;;;;;;;17.03;15.43;;;;;;;5.99;100.00;92350.94;5107425;28;20230;-71
2023/12/13 04:55:09;;;;;;;16.50;15.07;;;;;;;5.96;100.00;92346.28;5109211;28;20190;-72
2023/12/13 04:57:34;;;;;;;16.77;15.27;;;;;;;6.04;100.00;92317.25;5109711;28;20205;-73
2023/12/13 04:59:59;;;;;;;17.50;15.80;;;;;;;5.96;100.00;92325.56;5109032;28;20235;-73
2023/12/13 05:02:25;;;;;;;16.23;14.93;;;;;;;6.12;100.00;92332.28;5106052;28;20223;-74
2023/12/13 05:04:50;;;;;;;19.50;16.97;;;;;;;5.46;100.00;92351.28;5105039;28;20184;-77
2023/12/13 05:07:17;;;;;;;17.83;15.90;;;;;;;5.02;100.00;92381.06;5101821;28;20200;-78
2023/12/13 05:09:43;;;;;;;17.83;16.17;;;;;;;5.04;100.00;92335.06;5090752;28;20211;-76
2023/12/13 05:12:08;;;;;;;17.97;16.17;;;;;;;5.51;100.00;92361.66;5109573;28;20230;-79
2023/12/13 05:14:33;;;;;;;18.63;16.70;;;;;;;5.70;100.00;92342.81;5112574;28;20211;-77
2023/12/13 05:16:59;;;;;;;17.87;16.13;;;;;;;5.61;100.00;92315.06;5112383;28;20251;-76
2023/12/13 05:19:24;;;;;;;15.80;14.30;;;;;;;5.62;100.00;92285.59;5092978;28;20307;-75
2023/12/13 05:21:49;;;;;;;16.50;15.03;;;;;;;5.82;100.00;92277.88;5112519;28;20263;-75
2023/12/13 05:24:15;;;;;;;17.27;15.60;;;;;;;5.92;100.00;92265.69;5109859;28;20231;-73
2023/12/13 05:26:40;;;;;;;19.57;17.77;;;;;;;5.32;100.00;92262.19;5111724;28;21050;-74
2023/12/13 05:29:05;;;;;;;19.43;15.53;;;;;;;5.03;100.00;92299.88;5094344;28;20228;-72
2023/12/13 05:31:31;;;;;;;18.87;16.70;;;;;;;4.80;100.00;92329.50;5094147;28;20219;-74
2023/12/13 05:33:56;;;;;;;18.00;16.17;;;;;;;4.59;100.00;92322.66;5111617;28;20386;-73
2023/12/13 05:36:22;;;;;;;21.33;17.83;;;;;;;4.94;100.00;92341.75;5110894;28;20184;-70
2023/12/13 05:38:47;;;;;;;20.53;18.47;;;;;;;5.13;100.00;92326.56;5110795;28;20267;-71
2023/12/13 05:41:13;;;;;;;21.43;19.13;;;;;;;5.55;100.00;92339.41;5112004;28;20192;-71
2023/12/13 05:43:38;;;;;;;21.13;17.50;;;;;;;5.33;100.00;92331.03;5113187;28;20340;-71
2023/12/13 05:46:10;;;;;;;18.50;16.67;;;;;;;5.53;100.00;92321.53;5113936;28;20203;-76
2023/12/13 05:48:35;;;;;;;17.27;15.37;;;;;;;5.59;100.00;92327.50;5111839;28;20219;-76
2023/12/13 05:51:01;;;;;;;18.00;16.20;;;;;;;5.69;100.00;92330.13;5105210;28;20209;-78
2023/12/13 05:53:27;;;;;;;18.40;16.50;;;;;;;5.87;100.00;92347.78;5111599;28;20235;-76
2023/12/13 05:55:53;;;;;;;18.27;16.47;;;;;;;5.68;100.00;92357.81;5111855;28;20190;-77
2023/12/13 05:58:18;;;;;;;19.60;16.80;;;;;;;5.71;100.00;92359.13;5092846;28;20247;-77
2023/12/13 06:00:44;;;;;;;20.70;16.83;;;;;;;5.49;100.00;92348.19;5091426;28;20187;-73
2023/12/13 06:03:09;;;;;;;19.53;17.13;;;;;;;5.88;100.00;92332.00;5110198;28;20227;-74
2023/12/13 06:05:35;;;;;;;19.37;17.37;;;;;;;6.08;100.00;92339.03;5107037;28;20223;-73
2023/12/13 06:08:01;;;;;;;26.37;17.27;;;;;;;6.27;100.00;92327.13;5109218;28;20219;-73
2023/12/13 06:10:26;;;;;;;23.37;18.23;;;;;;;6.20;100.00;92318.81;5105992;28;20273;-73
2023/12/13 06:12:52;;;;;;;20.67;18.40;;;;;;;6.37;99.28;92337.50;5100377;28;20246;-73
2023/12/13 06:15:23;;;;;;;22.60;19.10;;;;;;;6.32;98.45;92340.88;5109486;28;20184;-76
2023/12/13 06:17:49;;;;;;;25.13;18.53;;;;;;;6.25;99.11;92331.78;5110610;28;20247;-77
2023/12/13 06:20:14;;;;;;;28.50;20.00;;;;;;;6.44;98.36;92332.84;5110735;28;20566;-75
2023/12/13 06:22:40;;;;;;;33.87;20.87;;;;;;;6.52;98.01;92330.50;5109969;28;20228;-75
2023/12/13 06:25:06;;;;;;;28.10;20.77;;;;;;;6.62;97.55;92319.34;5110652;28;20244;-74
2023/12/13 06:27:31;;;;;;;19.60;17.27;;;;;;;6.65;97.65;92311.03;5109848;28;20199;-77
2023/12/13 06:29:57;;;;;;;17.27;15.77;;;;;;;6.87;96.70;92295.94;5110127;28;20297;-75
2023/12/13 06:32:22;;;;;;;18.13;15.67;;;;;;;6.46;98.46;92291.84;5110087;28;20196;-73
2023/12/13 06:34:47;;;;;;;18.83;17.00;;;;;;;5.91;100.00;92307.41;5110074;28;20208;-73
2023/12/13 06:37:13;;;;;;;20.53;18.30;;;;;;;6.66;99.05;92307.41;5110332;28;20198;-74
2023/12/13 06:39:38;;;;;;;20.43;16.17;;;;;;;6.17;100.00;92312.34;5109466;28;20246;-74
2023/12/13 06:42:08;;;;;;;18.23;16.37;;;;;;;6.34;100.00;92312.88;5121407;28;20223;-78
2023/12/13 06:44:34;;;;;;;19.23;17.23;;;;;;;6.66;99.15;92299.63;5110474;28;20231;-77
2023/12/13 06:46:59;;;;;;;18.77;16.83;;;;;;;6.88;98.43;92292.31;5103905;28;20595;-73
2023/12/13 06:49:28;;;;;;;22.87;18.30;;;;;;;7.15;95.89;92297.16;5109731;28;20307;-73
2023/12/13 06:51:53;;;;;;;18.83;16.23;;;;;;;7.21;95.38;92304.66;5110365;28;20180;-72
2023/12/13 06:54:18;;;;;;;21.77;17.40;;;;;;;7.10;95.97;92292.75;5109980;28;21292;-75
2023/12/13 06:56:44;;;;;;;19.93;15.90;;;;;;;6.57;99.24;92279.69;5109639;28;20198;-75
2023/12/13 06:59:09;;;;;;;20.03;18.03;;;;;;;6.82;98.35;92271.84;5071106;28;1098226;-74
2023/12/13 07:01:34;;;;;;;29.87;21.60;;;;;;;5.98;100.00;92284.59;5110881;28;20218;-73
2023/12/13 07:04:01;;;;;;;21.23;17.87;;;;;;;5.99;100.00;92307.66;5110474;28;20227;-75
2023/12/13 07:06:26;;;;;;;23.20;17.83;;;;;;;6.21;100.00;92307.44;5110557;28;21156;-74
2023/12/13 07:08:52;;;;;;;19.30;17.37;;;;;;;6.74;98.86;92304.25;5110120;28;20219;-76
2023/12/13 07:11:17;;;;;;;22.03;18.87;;;;;;;6.93;97.44;92294.09;5091944;28;20245;-75
2023/12/13 07:13:43;;;;;;;23.57;19.83;;;;;;;7.02;97.17;92303.69;5107307;28;20220;-74
2023/12/13 07:16:08;;;;;;;22.13;19.27;;;;;;;7.17;96.10;92306.25;5092298;28;20222;-75
2023/12/13 07:18:34;;;;;;;27.77;20.03;;;;;;;6.63;98.75;92302.72;5110015;28;20220;-74
2023/12/13 07:20:59;;;;;;;26.83;20.30;;;;;;;6.41;100.00;92297.06;5110687;28;20204;-75
2023/12/13 07:23:25;;;;;;;24.23;19.97;;;;;;;7.14;98.20;92299.00;5106468;28;20288;-74
2023/12/13 07:25:50;;;;;;;30.10;22.20;;;;;;;6.80;98.39;92295.47;5102120;28;20215;-75
2023/12/13 07:28:16;;;;;;;28.37;21.80;;;;;;;7.47;96.48;92289.78;5109121;28;20262;-75
2023/12/13 07:30:41;;;;;;;22.03;19.00;;;;;;;7.99;93.28;92288.19;5109908;28;20196;-73
2023/12/13 07:33:10;;;;;;;31.17;23.10;;;;;;;8.07;93.11;92305.00;5103460;28;20223;-75
2023/12/13 07:35:35;;;;;;;32.83;23.23;;;;;;;7.31;96.59;92281.28;5107866;28;20246;-74
2023/12/13 07:38:01;;;;;;;28.93;22.40;;;;;;;7.96;94.86;92296.50;5109220;28;20223;-75
2023/12/13 07:40:27;;;;;;;35.17;22.97;;;;;;;8.29;92.51;92287.22;5109497;28;20268;-73
2023/12/13 07:42:52;;;;;;;28.10;21.63;;;;;;;7.98;93.92;92291.81;5109426;28;20301;-73
2023/12/13 07:45:20;;;;;;;32.53;22.33;;;;;;;8.30;92.84;92282.75;5107653;28;20196;-72
2023/12/13 07:47:46;;;;;;;28.23;21.13;;;;;;;8.59;92.12;92280.97;5107196;28;20231;-76
2023/12/13 07:50:11;;;;;;;27.50;21.73;;;;;;;8.83;90.90;92281.78;5092518;28;20192;-74
2023/12/13 07:52:37;;;;;;;30.83;24.73;;;;;;;8.72;91.14;92270.69;5110139;28;20231;-80
2023/12/13 07:55:03;;;;;;;33.23;23.83;;;;;;;8.72;90.26;92288.13;5110785;28;20196;-74
2023/12/13 07:57:28;;;;;;;29.70;22.60;;;;;;;8.18;92.18;92301.31;5095525;28;20882;-74
2023/12/13 07:59:53;;;;;;;28.03;23.77;;;;;;;8.16;93.94;92298.97;5119755;28;20224;-72
2023/12/13 08:02:20;;;;;;;32.67;23.13;;;;;;;7.91;94.44;92296.53;5110092;28;20216;-71
2023/12/13 08:04:46;;;;;;;24.50;21.53;;;;;;;7.86;94.76;92293.22;5110829;28;20248;-73
2023/12/13 08:07:12;;;;;;;29.73;19.70;;;;;;;8.39;93.13;92299.38;5110317;28;20192;-73
2023/12/13 08:09:37;;;;;;;26.07;20.77;;;;;;;8.64;91.91;92312.16;5108556;28;20216;-71
2023/12/13 08:12:02;;;;;;;22.00;19.63;;;;;;;7.84;95.70;92297.88;5090044;28;20184;-70
2023/12/13 08:14:30;;;;;;;25.13;20.50;;;;;;;8.28;93.07;92300.47;5109847;28;20227;-72
2023/12/13 08:16:57;;;;;;;25.17;21.43;;;;;;;8.43;92.60;92300.34;5092122;28;20187;-70
2023/12/13 08:19:22;;;;;;;26.93;22.23;;;;;;;8.01;94.48;92283.50;5109738;28;20226;-70
2023/12/13 08:21:48;;;;;;;28.53;24.57;;;;;;;8.62;91.94;92273.41;5109144;28;20203;-71
2023/12/13 08:24:13;;;;;;;32.10;26.40;;;;;;;8.71;90.57;92276.19;5113014;28;20238;-70
2023/12/13 08:26:38;;;;;;;34.43;26.40;;;;;;;8.64;90.72;92278.34;5092118;28;20184;-71
2023/12/13 08:29:04;;;;;;;36.70;29.17;;;;;;;8.53;90.57;92271.66;5113129;28;20233;-70
2023/12/13 08:31:30;;;;;;;40.70;29.37;;;;;;;8.26;92.29;92292.97;5109454;28;20180;-70
2023/12/13 08:33:55;;;;;;;34.43;27.87;;;;;;;8.11;93.64;92291.19;5109598;28;20242;-70
2023/12/13 08:36:22;;;;;;;38.40;28.97;;;;;;;8.37;92.45;92296.25;5099373;28;20239;-70
2023/12/13 08:38:47;;;;;;;40.63;29.43;;;;;;;8.39;91.83;92289.72;5109587;28;20216;-70
2023/12/13 08:41:14;;;;;;;38.77;30.43;;;;;;;8.38;91.76;92295.19;5109545;28;20188;-70
2023/12/13 08:43:40;;;;;;;39.93;31.03;;;;;;;8.60;90.51;92303.34;5112420;28;20228;-71
2023/12/13 08:46:05;;;;;;;47.07;31.00;;;;;;;8.44;90.24;92286.28;5114094;28;20184;-70
2023/12/13 08:48:31;;;;;;;46.03;30.83;;;;;;;8.66;89.78;92299.63;5109389;28;20207;-71
2023/12/13 08:50:59;;;;;;;42.63;30.03;;;;;;;8.08;92.75;92302.16;5109909;28;20184;-71
2023/12/13 08:53:25;;;;;;;43.70;30.57;;;;;;;8.53;91.76;92308.09;5107473;28;20239;-71
2023/12/13 08:55:51;;;;;;;39.87;29.97;;;;;;;8.10;92.88;92314.88;5088521;28;20187;-71
2023/12/13 08:58:16;;;;;;;48.63;29.57;;;;;;;8.07;94.58;92299.81;5101132;28;20235;-71
2023/12/13 09:00:42;;;;;;;42.80;31.20;;;;;;;8.22;93.55;92310.09;5111352;28;20180;-70
2023/12/13 09:03:08;;;;;;;43.47;29.47;;;;;;;7.70;96.98;92302.91;5091279;28;20240;-70
2023/12/13 09:05:34;;;;;;;42.17;31.10;;;;;;;8.24;95.21;92283.84;5090644;28;20222;-70
2023/12/13 09:07:59;;;;;;;35.80;27.20;;;;;;;8.75;92.60;92298.00;5102017;28;20224;-70
2023/12/13 09:10:24;;;;;;;33.73;26.47;;;;;;;9.24;89.50;92272.50;5106984;28;20200;-71
2023/12/13 09:12:50;;;;;;;39.93;27.40;;;;;;;8.74;90.25;92279.00;5106600;28;20228;-70
2023/12/13 09:15:17;;;;;;;35.73;26.03;;;;;;;8.79;91.52;92267.78;5098946;28;20207;-69
2023/12/13 09:17:45;;;;;;;35.93;27.70;;;;;;;9.46;87.49;92270.16;5109181;28;20242;-71
2023/12/13 09:20:14;;;;;;;32.77;27.77;;;;;;;9.72;85.43;92258.34;5106337;28;20176;-70
2023/12/13 09:22:40;;;;;;;37.20;27.73;;;;;;;9.68;85.17;92257.38;5111190;28;20224;-70
2023/12/13 09:25:06;;;;;;;34.17;28.10;;;;;;;9.00;89.23;92248.28;5109447;28;20172;-70
2023/12/13 09:27:31;;;;;;;39.10;30.17;;;;;;;8.86;91.00;92244.78;5109013;28;20184;-70
2023/12/13 09:29:57;;;;;;;39.27;29.50;;;;;;;9.54;87.74;92220.03;5101277;28;20263;-70
2023/12/13 09:32:22;;;;;;;43.57;30.90;;;;;;;9.49;88.09;92235.72;5108835;28;20651;-71
2023/12/13 09:34:47;;;;;;;40.27;29.67;;;;;;;9.55;88.42;92222.34;5104942;28;20192;-70
2023/12/13 09:37:13;;;;;;;40.87;31.53;;;;;;;10.25;85.16;92225.78;5109126;28;20218;-74
2023/12/13 09:39:38;;;;;;;38.73;30.17;;;;;;;10.09;85.16;92253.16;5108725;28;20219;-72
2023/12/13 09:42:04;;;;;;;43.57;31.63;;;;;;;9.48;87.55;92270.63;5109015;28;20219;-70
2023/12/13 09:44:30;;;;;;;40.73;29.10;;;;;;;9.80;85.61;92268.91;5106787;28;20229;-70
2023/12/13 09:46:58;;;;;;;41.37;30.20;;;;;;;9.78;87.88;92255.41;5101892;28;20605;-70
2023/12/13 09:49:26;;;;;;;38.67;28.70;;;;;;;9.91;84.12;92235.66;5108729;28;20258;-70
2023/12/13 09:51:54;;;;;;;37.63;27.23;;;;;;;10.12;82.96;92226.50;5101918;28;20207;-70
2023/12/13 09:54:19;;;;;;;40.17;26.67;;;;;;;9.93;82.47;92228.31;5107409;28;20274;-70
2023/12/13 09:56:45;;;;;;;32.63;23.80;;;;;;;10.51;79.99;92233.94;5109305;28;20188;-69
2023/12/13 09:59:11;;;;;;;32.97;23.03;;;;;;;10.00;82.03;92227.97;5097913;28;20259;-70
2023/12/13 10:01:36;;;;;;;26.77;20.83;;;;;;;10.38;78.92;92204.16;5104754;28;20188;-74
2023/12/13 10:04:03;;;;;;;30.10;22.37;;;;;;;10.62;76.02;92219.66;5112101;28;20231;-80
2023/12/13 10:06:29;;;;;;;40.43;22.33;;;;;;;9.89;79.73;92216.91;5112657;28;20265;-75
2023/12/13 10:08:56;;;;;;;26.17;21.10;;;;;;;10.31;77.15;92171.66;5111950;28;20226;-76
2023/12/13 10:11:22;;;;;;;32.27;22.23;;;;;;;10.61;75.49;92192.81;5112428;28;21387;-76
2023/12/13 10:13:48;;;;;;;27.17;23.20;;;;;;;10.81;75.28;92199.50;5110558;28;20212;-76
2023/12/13 10:16:14;;;;;;;32.27;22.80;;;;;;;9.63;80.07;92187.81;5111325;28;20192;-76
2023/12/13 10:18:40;;;;;;;31.97;23.73;;;;;;;10.22;78.09;92179.41;5111905;28;20257;-76
2023/12/13 10:21:07;;;;;;;34.70;26.30;;;;;;;10.67;75.97;92181.22;5111110;28;20180;-76
2023/12/13 10:23:34;;;;;;;36.83;26.33;;;;;;;10.58;76.68;92176.94;5111009;28;20716;-76
2023/12/13 10:26:00;;;;;;;38.13;26.60;;;;;;;10.15;78.07;92165.19;5112109;28;20218;-76
2023/12/13 10:28:26;;;;;;;37.47;25.97;;;;;;;10.02;79.23;92169.25;5110926;28;20208;-75
2023/12/13 10:30:52;;;;;;;33.77;26.80;;;;;;;10.72;76.79;92141.19;5112101;28;20202;-76
2023/12/13 10:33:17;;;;;;;47.20;26.27;;;;;;;9.94;79.40;92135.22;5111503;28;20222;-76
2023/12/13 10:35:43;;;;;;;32.20;24.77;;;;;;;10.59;77.51;92110.63;5111978;28;21017;-75
2023/12/13 10:38:14;;;;;;;32.53;24.77;;;;;;;10.85;76.43;92125.50;5111256;28;20223;-75
2023/12/13 10:40:41;;;;;;;40.40;24.73;;;;;;;10.41;78.52;92120.09;5109416;28;20202;-73
2023/12/13 10:43:10;;;;;;;40.17;26.00;;;;;;;10.69;76.62;92129.47;5110246;28;20220;-74
2023/12/13 10:45:39;;;;;;;33.43;27.27;;;;;;;10.31;78.18;92125.50;5112107;28;20358;-73
2023/12/13 10:48:08;;;;;;;36.47;25.57;;;;;;;10.39;77.39;92117.00;5109282;28;20224;-73
2023/12/13 10:50:34;;;;;;;34.93;25.97;;;;;;;9.97;79.56;92109.38;5104389;28;20186;-74
2023/12/13 10:53:01;;;;;;;37.70;26.13;;;;;;;10.26;77.88;92122.19;5110149;28;20228;-73
2023/12/13 10:55:27;;;;;;;40.30;26.40;;;;;;;9.77;80.46;92120.13;5111775;28;20203;-73
2023/12/13 10:57:53;;;;;;;37.20;27.10;;;;;;;9.40;81.97;92109.75;5112209;28;20228;-73
2023/12/13 11:00:19;;;;;;;39.57;26.27;;;;;;;10.15;79.74;92123.44;5111562;28;20180;-73
2023/12/13 11:02:52;;;;;;;38.70;26.80;;;;;;;9.19;81.72;92118.91;5090528;28;20212;-73
2023/12/13 11:05:18;;;;;;;34.67;25.17;;;;;;;9.03;82.53;92114.94;5108071;28;20463;-74
2023/12/13 11:07:44;;;;;;;38.03;26.67;;;;;;;9.92;79.84;92116.47;5111015;28;20240;-73
2023/12/13 11:10:11;;;;;;;35.67;25.40;;;;;;;9.12;81.86;92108.84;5103941;28;20185;-73
2023/12/13 11:12:52;;;;;;;42.87;25.13;;;;;;;9.70;81.10;92124.91;5108716;28;20188;-73
2023/12/13 11:15:19;;;;;;;32.47;23.93;;;;;;;10.13;79.36;92123.75;5108581;28;20184;-73